Time;durP1;ratioP1;P1;durP2;ratioP2;P2;SDS_P1;SDS_P2;PMS_P1;PMS_P2;Temp;Humidity;BMP_temperature;BMP_pressure;BME280_temperature;BME280_humidity;BME280_pressure;Samples;Min_cycle;Max_cycle;Signal;HPM_P1;HPM_P2
2022/12/26 00:00:42;;;;;;;;;;;;;;;;;;7363349;19;19923;-74
2022/12/26 00:03:08;;;;;;;;;;;;;;;;;;7315461;19;19922;-82
2022/12/26 00:05:33;;;;;;;;;;;;;;;;;;7324989;19;19918;-81
2022/12/26 00:07:58;;;;;;;;;;;;;;;;;;7341569;19;19910;-82
2022/12/26 00:10:23;;;;;;;;;;;;;;;;;;7356253;19;19954;-81
2022/12/26 00:12:48;;;;;;;;;;;;;;;;;;7365801;19;19950;-82
2022/12/26 00:15:13;;;;;;;;;;;;;;;;;;7365701;19;19918;-80
2022/12/26 00:17:38;;;;;;;;;;;;;;;;;;7352708;19;20324;-82
2022/12/26 00:20:03;;;;;;;;;;;;;;;;;;7355287;19;19919;-82
2022/12/26 00:22:28;;;;;;;;;;;;;;;;;;7362685;19;20280;-82
2022/12/26 00:24:53;;;;;;;;;;;;;;;;;;7368280;19;19914;-80
2022/12/26 00:27:18;;;;;;;;;;;;;;;;;;7366723;19;19919;-80
2022/12/26 00:29:44;;;;;;;;;;;;;;;;;;7365889;19;19918;-81
2022/12/26 00:32:09;;;;;;;;;;;;;;;;;;7362722;19;19922;-80
2022/12/26 00:34:34;;;;;;;;;;;;;;;;;;7366164;19;19918;-80
2022/12/26 00:36:59;;;;;;;;;;;;;;;;;;7324661;19;20015;-80
2022/12/26 00:39:24;;;;;;;;;;;;;;;;;;7361213;19;19919;-79
2022/12/26 00:41:49;;;;;;;;;;;;;;;;;;7360352;19;19926;-80
2022/12/26 00:44:14;;;;;;;;;;;;;;;;;;7368920;19;19970;-81
2022/12/26 00:46:39;;;;;;;;;;;;;;;;;;7352384;19;19986;-82
2022/12/26 00:49:04;;;;;;;;;;;;;;;;;;7367215;19;20299;-81
2022/12/26 00:51:29;;;;;;;;;;;;;;;;;;7344626;19;19918;-82
2022/12/26 00:53:54;;;;;;;;;;;;;;;;;;7360794;19;19922;-81
2022/12/26 00:56:20;;;;;;;;;;;;;;;;;;7350016;19;19918;-80
2022/12/26 00:58:45;;;;;;;;;;;;;;;;;;7354430;19;19918;-83
2022/12/26 01:01:10;;;;;;;;;;;;;;;;;;7349163;19;20689;-81
2022/12/26 01:03:35;;;;;;;;;;;;;;;;;;7326953;19;19926;-83
2022/12/26 01:06:01;;;;;;;;;;;;;;;;;;7345554;19;19919;-82
2022/12/26 01:08:26;;;;;;;;;;;;;;;;;;7351160;19;19934;-81
2022/12/26 01:10:51;;;;;;;;;;;;;;;;;;7356595;19;20027;-81
2022/12/26 01:13:16;;;;;;;;;;;;;;;;;;7356994;19;19915;-83
2022/12/26 01:15:41;;;;;;;;;;;;;;;;;;7360905;19;20730;-81
2022/12/26 01:18:06;;;;;;;;;;;;;;;;;;7359863;19;19927;-83
2022/12/26 01:20:31;;;;;;;;;;;;;;;;;;7354472;19;19922;-82
2022/12/26 01:22:56;;;;;;;;;;;;;;;;;;7368266;19;19926;-80
2022/12/26 01:25:21;;;;;;;;;;;;;;;;;;7359527;19;19961;-82
2022/12/26 01:27:47;;;;;;;;;;;;;;;;;;7352937;19;20628;-80
2022/12/26 01:30:12;;;;;;;;;;;;;;;;;;7344711;19;19994;-81
2022/12/26 01:32:37;;;;;;;;;;;;;;;;;;7362872;19;19911;-83
2022/12/26 01:35:02;;;;;;;;;;;;;;;;;;7349280;19;19954;-81
2022/12/26 01:37:27;;;;;;;;;;;;;;;;;;7354632;19;20536;-82
2022/12/26 01:39:52;;;;;;;;;;;;;;;;;;7361214;19;19935;-82
2022/12/26 01:42:17;;;;;;;;;;;;;;;;;;7365593;19;19923;-82
2022/12/26 01:44:42;;;;;;;;;;;;;;;;;;7355126;19;20534;-81
2022/12/26 01:47:07;;;;;;;;;;;;;;;;;;7364883;19;20419;-80
2022/12/26 01:49:33;;;;;;;;;;;;;;;;;;7352344;19;20293;-82
2022/12/26 01:51:58;;;;;;;;;;;;;;;;;;7362341;19;19939;-81
2022/12/26 01:54:23;;;;;;;;;;;;;;;;;;7354430;19;19947;-82
2022/12/26 01:56:48;;;;;;;;;;;;;;;;;;7352597;19;20104;-80
2022/12/26 01:59:13;;;;;;;;;;;;;;;;;;7354232;19;19919;-82
2022/12/26 02:01:38;;;;;;;;;;;;;;;;;;7363461;19;19923;-80
2022/12/26 02:06:47;;;;;;;;;;;;;;;;;;7230221;19;20928;-83
2022/12/26 02:09:12;;;;;;;;;;;;;;;;;;7260872;19;20866;-82
2022/12/26 02:11:37;;;;;;;;;;;;;;;;;;7264635;19;19930;-81
2022/12/26 02:14:03;;;;;;;;;;;;;;;;;;7261427;19;19922;-83
2022/12/26 02:16:28;;;;;;;;;;;;;;;;;;7271789;19;19933;-83
2022/12/26 02:18:53;;;;;;;;;;;;;;;;;;7263396;19;19915;-83
2022/12/26 02:21:19;;;;;;;;;;;;;;;;;;7260926;19;20354;-83
2022/12/26 02:23:44;;;;;;;;;;;;;;;;;;7259660;19;20418;-82
2022/12/26 02:26:09;;;;;;;;;;;;;;;;;;7268607;19;19923;-81
2022/12/26 02:28:34;;;;;;;;;;;;;;;;;;7263700;19;19927;-82
2022/12/26 02:30:59;;;;;;;;;;;;;;;;;;7263266;19;19971;-81
2022/12/26 02:33:24;;;;;;;;;;;;;;;;;;7272025;19;20145;-82
2022/12/26 02:35:49;;;;;;;;;;;;;;;;;;7260810;19;20206;-83
2022/12/26 02:38:14;;;;;;;;;;;;;;;;;;7264757;19;19976;-83
2022/12/26 02:40:41;;;;;;;;;;;;;;;;;;7263613;19;20711;-82
2022/12/26 02:43:06;;;;;;;;;;;;;;;;;;7270158;19;19919;-79
2022/12/26 02:48:15;;;;;;;;;;;;;;;;;;7274251;19;20857;-82
2022/12/26 03:15:16;;;;;;;;;;;;;;;;;;7366511;19;20472;-80
2022/12/26 03:17:41;;;;;;;;;;;;;;;;;;7364065;19;20434;-78
2022/12/26 03:20:07;;;;;;;;;;;;;;;;;;7361585;19;19929;-80
2022/12/26 03:22:32;;;;;;;;;;;;;;;;;;7371925;19;19929;-82
2022/12/26 03:27:41;;;;;;;;;;;;;;;;;;7366076;19;19926;-82
2022/12/26 03:32:49;;;;;;;;;;;;;;;;;;7370057;19;20682;-79
2022/12/26 03:35:14;;;;;;;;;;;;;;;;;;7366613;19;20268;-80
2022/12/26 03:37:40;;;;;;;;;;;;;;;;;;7367734;19;19919;-80
2022/12/26 04:21:04;;;;;;;;;;;;;;;;;;7365882;19;19970;-79
2022/12/26 04:45:21;;;;;;;;;;;;;;;;;;7365228;19;19926;-79
2022/12/26 04:50:30;;;;;;;;;;;;;;;;;;7361337;19;19938;-80
2022/12/26 04:52:58;;;;;;;;;;;;;;;;;;7359024;19;19926;-81
2022/12/26 04:55:23;;;;;;;;;;;;;;;;;;7364286;19;19918;-80
2022/12/26 04:57:48;;;;;;;;;;;;;;;;;;7366174;19;20005;-79
2022/12/26 05:00:13;;;;;;;;;;;;;;;;;;7365413;19;19936;-82
2022/12/26 05:10:51;;;;;;;;;;;;;;;;;;7363902;19;20011;-79
2022/12/26 05:13:16;;;;;;;;;;;;;;;;;;7372102;19;19946;-81
2022/12/26 05:29:20;;;;;;;;;;;;;;;;;;7367563;19;19946;-81
2022/12/26 05:31:45;;;;;;;;;;;;;;;;;;7346124;19;19922;-81
2022/12/26 05:34:14;;;;;;;;;;;;;;;;;;7366147;19;20850;-79
2022/12/26 05:36:39;;;;;;;;;;;;;;;;;;7360683;19;19957;-80
2022/12/26 05:39:05;;;;;;;;;;;;;;;;;;7369883;19;19915;-80
2022/12/26 05:41:30;;;;;;;;;;;;;;;;;;7367212;19;20782;-80
2022/12/26 05:43:55;;;;;;;;;;;;;;;;;;7362692;19;19919;-79
2022/12/26 05:46:20;;;;;;;;;;;;;;;;;;7366726;19;19926;-80
2022/12/26 05:48:45;;;;;;;;;;;;;;;;;;7358580;19;19927;-80
2022/12/26 05:51:10;;;;;;;;;;;;;;;;;;7360884;19;19919;-79
2022/12/26 05:53:35;;;;;;;;;;;;;;;;;;7367637;19;20520;-79
2022/12/26 05:56:00;;;;;;;;;;;;;;;;;;7363829;19;19952;-81
2022/12/26 05:58:25;;;;;;;;;;;;;;;;;;7363973;19;19919;-81
2022/12/26 06:00:51;;;;;;;;;;;;;;;;;;7359522;19;19978;-80
2022/12/26 06:03:16;;;;;;;;;;;;;;;;;;7371657;19;19979;-80
2022/12/26 06:05:41;;;;;;;;;;;;;;;;;;7360290;19;19918;-81
2022/12/26 06:08:06;;;;;;;;;;;;;;;;;;7360824;19;19978;-79
2022/12/26 06:10:31;;;;;;;;;;;;;;;;;;7367793;19;20527;-80
2022/12/26 06:12:56;;;;;;;;;;;;;;;;;;7367341;19;19937;-79
2022/12/26 06:15:21;;;;;;;;;;;;;;;;;;7366167;19;19975;-80
2022/12/26 06:17:46;;;;;;;;;;;;;;;;;;7364177;19;19926;-80
2022/12/26 06:20:11;;;;;;;;;;;;;;;;;;7362938;19;19923;-81
2022/12/26 06:22:36;;;;;;;;;;;;;;;;;;7365917;19;20531;-78
2022/12/26 06:25:01;;;;;;;;;;;;;;;;;;7366660;19;19933;-80
2022/12/26 06:27:27;;;;;;;;;;;;;;;;;;7366233;19;19922;-81
2022/12/26 06:29:52;;;;;;;;;;;;;;;;;;7359377;19;20030;-81
2022/12/26 06:32:17;;;;;;;;;;;;;;;;;;7368966;19;19918;-81
2022/12/26 06:34:42;;;;;;;;;;;;;;;;;;7362840;19;20013;-81
2022/12/26 06:37:07;;;;;;;;;;;;;;;;;;7367893;19;19974;-79
2022/12/26 06:39:32;;;;;;;;;;;;;;;;;;7366940;19;19918;-81
2022/12/26 06:41:57;;;;;;;;;;;;;;;;;;7374099;19;19927;-79
2022/12/26 06:44:22;;;;;;;;;;;;;;;;;;7366274;19;19927;-80
2022/12/26 06:46:47;;;;;;;;;;;;;;;;;;7372934;19;19919;-78
2022/12/26 06:49:12;;;;;;;;;;;;;;;;;;7371045;19;20459;-79
2022/12/26 06:51:37;;;;;;;;;;;;;;;;;;7374372;19;19921;-78
2022/12/26 06:54:03;;;;;;;;;;;;;;;;;;7373982;19;19918;-82
2022/12/26 06:56:28;;;;;;;;;;;;;;;;;;7377041;19;19922;-79
2022/12/26 06:58:53;;;;;;;;;;;;;;;;;;7373009;19;19946;-82
2022/12/26 07:01:18;;;;;;;;;;;;;;;;;;7370999;19;19946;-80
2022/12/26 07:03:43;;;;;;;;;;;;;;;;;;7362895;19;19930;-79
2022/12/26 07:06:08;;;;;;;;;;;;;;;;;;7367959;19;20876;-82
2022/12/26 07:08:33;;;;;;;;;;;;;;;;;;7371604;19;19923;-80
2022/12/26 07:10:59;;;;;;;;;;;;;;;;;;7365632;19;19980;-78
2022/12/26 07:13:24;;;;;;;;;;;;;;;;;;7374892;19;19957;-82
2022/12/26 07:15:49;;;;;;;;;;;;;;;;;;7364840;19;19974;-81
2022/12/26 07:18:14;;;;;;;;;;;;;;;;;;7370617;19;19970;-81
2022/12/26 07:20:39;;;;;;;;;;;;;;;;;;7368238;19;19911;-80
2022/12/26 07:23:04;;;;;;;;;;;;;;;;;;7371736;19;20341;-77
2022/12/26 07:25:29;;;;;;;;;;;;;;;;;;7364693;19;19925;-79
2022/12/26 07:27:54;;;;;;;;;;;;;;;;;;7367512;19;19922;-79
2022/12/26 07:30:19;;;;;;;;;;;;;;;;;;7368182;19;19926;-79
2022/12/26 07:32:44;;;;;;;;;;;;;;;;;;7370492;19;19922;-81
2022/12/26 07:35:09;;;;;;;;;;;;;;;;;;7365779;19;20337;-81
2022/12/26 07:37:34;;;;;;;;;;;;;;;;;;7370375;19;20696;-81
2022/12/26 07:39:59;;;;;;;;;;;;;;;;;;7365465;19;19939;-78
2022/12/26 07:42:25;;;;;;;;;;;;;;;;;;7368610;19;19918;-78
2022/12/26 07:44:50;;;;;;;;;;;;;;;;;;7367600;19;19922;-81
2022/12/26 07:47:15;;;;;;;;;;;;;;;;;;7371109;19;19944;-80
2022/12/26 07:49:40;;;;;;;;;;;;;;;;;;7368245;19;20910;-80
2022/12/26 07:52:05;;;;;;;;;;;;;;;;;;7360422;19;19925;-79
2022/12/26 07:54:31;;;;;;;;;;;;;;;;;;7366206;19;19923;-81
2022/12/26 07:56:56;;;;;;;;;;;;;;;;;;7364323;19;20249;-78
2022/12/26 07:59:21;;;;;;;;;;;;;;;;;;7370189;19;19978;-79
2022/12/26 08:01:46;;;;;;;;;;;;;;;;;;7367247;19;20318;-80
2022/12/26 08:04:11;;;;;;;;;;;;;;;;;;7363570;19;20593;-81
2022/12/26 08:06:36;;;;;;;;;;;;;;;;;;7365240;19;19919;-79
2022/12/26 08:09:01;;;;;;;;;;;;;;;;;;7364244;19;19915;-80
2022/12/26 08:11:26;;;;;;;;;;;;;;;;;;7368569;19;20028;-80
2022/12/26 08:13:51;;;;;;;;;;;;;;;;;;7362572;19;19952;-79
2022/12/26 08:16:16;;;;;;;;;;;;;;;;;;7370553;19;19919;-79
2022/12/26 08:18:42;;;;;;;;;;;;;;;;;;7365435;19;19990;-82
2022/12/26 08:21:07;;;;;;;;;;;;;;;;;;7364252;19;20604;-80
2022/12/26 08:23:32;;;;;;;;;;;;;;;;;;7375036;19;20019;-79
2022/12/26 08:25:57;;;;;;;;;;;;;;;;;;7367759;19;19919;-82
2022/12/26 08:28:22;;;;;;;;;;;;;;;;;;7368770;19;20352;-81
2022/12/26 08:30:48;;;;;;;;;;;;;;;;;;7361696;19;20562;-82
2022/12/26 08:33:13;;;;;;;;;;;;;;;;;;7374399;19;19945;-79
2022/12/26 08:35:39;;;;;;;;;;;;;;;;;;7364774;19;20237;-80
2022/12/26 08:38:04;;;;;;;;;;;;;;;;;;7369734;19;20415;-80
2022/12/26 08:40:29;;;;;;;;;;;;;;;;;;7368492;19;19933;-81
2022/12/26 08:42:54;;;;;;;;;;;;;;;;;;7371246;19;19942;-79
2022/12/26 08:45:19;;;;;;;;;;;;;;;;;;7370089;19;19964;-81
2022/12/26 08:47:44;;;;;;;;;;;;;;;;;;7359658;19;19915;-79
2022/12/26 08:50:09;;;;;;;;;;;;;;;;;;7360006;19;19926;-80
2022/12/26 08:52:34;;;;;;;;;;;;;;;;;;7364721;19;19915;-79
2022/12/26 08:54:59;;;;;;;;;;;;;;;;;;7365968;19;19906;-79
2022/12/26 08:57:25;;;;;;;;;;;;;;;;;;7370952;19;19935;-80
2022/12/26 08:59:50;;;;;;;;;;;;;;;;;;7364400;19;20523;-81
2022/12/26 09:02:15;;;;;;;;;;;;;;;;;;7362810;19;19967;-79
2022/12/26 09:04:40;;;;;;;;;;;;;;;;;;7363753;19;20506;-80
2022/12/26 09:07:05;;;;;;;;;;;;;;;;;;7356961;19;20363;-79
2022/12/26 09:09:30;;;;;;;;;;;;;;;;;;7361257;19;19919;-80
2022/12/26 09:11:55;;;;;;;;;;;;;;;;;;7351639;19;19926;-81
2022/12/26 09:14:20;;;;;;;;;;;;;;;;;;7361260;19;20483;-82
2022/12/26 09:16:46;;;;;;;;;;;;;;;;;;7364663;19;19926;-80
2022/12/26 09:19:15;;;;;;;;;;;;;;;;;;7358139;19;19922;-81
2022/12/26 09:21:40;;;;;;;;;;;;;;;;;;7362102;19;19921;-80
2022/12/26 09:24:05;;;;;;;;;;;;;;;;;;7364934;19;19927;-80
2022/12/26 09:26:30;;;;;;;;;;;;;;;;;;7366813;19;19945;-79
2022/12/26 09:28:55;;;;;;;;;;;;;;;;;;7360185;19;19919;-80
2022/12/26 09:31:21;;;;;;;;;;;;;;;;;;7361796;19;20019;-80
2022/12/26 09:33:46;;;;;;;;;;;;;;;;;;7363377;19;19925;-82
2022/12/26 09:36:11;;;;;;;;;;;;;;;;;;7346487;19;19926;-80
2022/12/26 09:38:36;;;;;;;;;;;;;;;;;;7361111;19;20731;-81
2022/12/26 09:41:01;;;;;;;;;;;;;;;;;;7360048;19;19931;-80
2022/12/26 09:43:26;;;;;;;;;;;;;;;;;;7363165;19;19922;-80
2022/12/26 09:45:51;;;;;;;;;;;;;;;;;;7362283;19;20403;-80
2022/12/26 09:48:18;;;;;;;;;;;;;;;;;;7367482;19;20376;-80
2022/12/26 09:50:43;;;;;;;;;;;;;;;;;;7363021;19;19966;-80
2022/12/26 09:53:08;;;;;;;;;;;;;;;;;;7367396;19;19922;-80
2022/12/26 09:55:34;;;;;;;;;;;;;;;;;;7354533;19;19915;-80
2022/12/26 09:57:59;;;;;;;;;;;;;;;;;;7361372;19;19919;-80
2022/12/26 10:00:25;;;;;;;;;;;;;;;;;;7368583;19;19934;-79
2022/12/26 10:02:50;;;;;;;;;;;;;;;;;;7365566;19;19914;-81
2022/12/26 10:05:15;;;;;;;;;;;;;;;;;;7364973;19;19925;-81
2022/12/26 10:07:40;;;;;;;;;;;;;;;;;;7358974;19;19942;-82
2022/12/26 10:10:05;;;;;;;;;;;;;;;;;;7354688;19;19950;-80
2022/12/26 10:12:30;;;;;;;;;;;;;;;;;;7356700;19;20356;-79
2022/12/26 10:14:55;;;;;;;;;;;;;;;;;;7360511;19;19919;-81
2022/12/26 10:17:20;;;;;;;;;;;;;;;;;;7366078;19;19935;-80
2022/12/26 10:19:45;;;;;;;;;;;;;;;;;;7354267;19;19954;-81
2022/12/26 10:22:11;;;;;;;;;;;;;;;;;;7359831;19;20676;-80
2022/12/26 10:24:36;;;;;;;;;;;;;;;;;;7357081;19;19962;-81
2022/12/26 10:27:01;;;;;;;;;;;;;;;;;;7359370;19;19927;-80
2022/12/26 10:29:26;;;;;;;;;;;;;;;;;;7365427;19;19949;-79
2022/12/26 10:31:51;;;;;;;;;;;;;;;;;;7364266;19;19915;-81
2022/12/26 10:34:16;;;;;;;;;;;;;;;;;;7353726;19;19930;-81
2022/12/26 10:36:42;;;;;;;;;;;;;;;;;;7365490;19;20016;-79
2022/12/26 10:39:07;;;;;;;;;;;;;;;;;;7355137;19;19926;-80
2022/12/26 10:41:32;;;;;;;;;;;;;;;;;;7357296;19;19923;-79
2022/12/26 10:43:57;;;;;;;;;;;;;;;;;;7353693;19;20763;-82
2022/12/26 10:46:22;;;;;;;;;;;;;;;;;;7351483;19;19919;-82
2022/12/26 10:48:47;;;;;;;;;;;;;;;;;;7345871;19;20275;-80
2022/12/26 10:51:12;;;;;;;;;;;;;;;;;;7356253;19;19950;-80
2022/12/26 10:53:37;;;;;;;;;;;;;;;;;;7356702;19;19922;-81
2022/12/26 10:56:02;;;;;;;;;;;;;;;;;;7311898;19;19915;-81
2022/12/26 10:58:28;;;;;;;;;;;;;;;;;;7350165;19;19947;-80
2022/12/26 11:00:53;;;;;;;;;;;;;;;;;;7356256;19;19911;-81
2022/12/26 11:03:18;;;;;;;;;;;;;;;;;;7348497;19;19950;-80
2022/12/26 11:05:43;;;;;;;;;;;;;;;;;;7346698;19;19925;-80
2022/12/26 11:08:08;;;;;;;;;;;;;;;;;;7347589;19;20011;-80
2022/12/26 11:10:33;;;;;;;;;;;;;;;;;;7355754;19;19938;-81
2022/12/26 11:12:58;;;;;;;;;;;;;;;;;;7329328;19;19911;-80
2022/12/26 11:15:23;;;;;;;;;;;;;;;;;;7340926;19;19991;-79
2022/12/26 11:17:49;;;;;;;;;;;;;;;;;;7356175;19;19975;-78
2022/12/26 11:20:14;;;;;;;;;;;;;;;;;;7331971;19;20855;-80
2022/12/26 11:22:39;;;;;;;;;;;;;;;;;;7346710;19;19915;-79
2022/12/26 11:25:04;;;;;;;;;;;;;;;;;;7347226;19;19926;-80
2022/12/26 11:27:29;;;;;;;;;;;;;;;;;;7357357;19;19915;-78
2022/12/26 11:29:54;;;;;;;;;;;;;;;;;;7361253;19;19914;-80
2022/12/26 11:32:20;;;;;;;;;;;;;;;;;;7362822;19;19947;-82
2022/12/26 11:34:45;;;;;;;;;;;;;;;;;;7348792;19;19923;-83
2022/12/26 11:37:10;;;;;;;;;;;;;;;;;;7329377;19;19919;-81
2022/12/26 11:39:35;;;;;;;;;;;;;;;;;;7336708;19;20602;-82
2022/12/26 11:42:01;;;;;;;;;;;;;;;;;;7354772;19;19922;-81
2022/12/26 11:44:26;;;;;;;;;;;;;;;;;;7364440;19;19927;-82
2022/12/26 11:46:51;;;;;;;;;;;;;;;;;;7352848;19;20254;-80
2022/12/26 11:49:16;;;;;;;;;;;;;;;;;;7320436;19;19926;-80
2022/12/26 11:51:41;;;;;;;;;;;;;;;;;;7343675;19;19945;-79
2022/12/26 11:54:06;;;;;;;;;;;;;;;;;;7360954;19;20031;-79
2022/12/26 11:56:31;;;;;;;;;;;;;;;;;;7367273;19;19956;-79
2022/12/26 11:58:56;;;;;;;;;;;;;;;;;;7354683;19;19950;-81
2022/12/26 12:01:22;;;;;;;;;;;;;;;;;;7356225;19;19998;-81
2022/12/26 12:03:47;;;;;;;;;;;;;;;;;;7338739;19;19978;-81
2022/12/26 12:06:12;;;;;;;;;;;;;;;;;;7342572;19;19918;-81
2022/12/26 12:08:37;;;;;;;;;;;;;;;;;;7327210;19;19950;-81
2022/12/26 12:11:02;;;;;;;;;;;;;;;;;;7354386;19;20320;-81
2022/12/26 12:13:27;;;;;;;;;;;;;;;;;;7347522;19;20988;-80
2022/12/26 12:15:52;;;;;;;;;;;;;;;;;;7339439;19;20819;-80
2022/12/26 12:18:17;;;;;;;;;;;;;;;;;;7349842;19;19929;-81
2022/12/26 12:20:43;;;;;;;;;;;;;;;;;;7351818;19;19917;-81
2022/12/26 12:23:08;;;;;;;;;;;;;;;;;;7348829;19;19925;-81
2022/12/26 12:25:34;;;;;;;;;;;;;;;;;;7355678;19;19922;-81
2022/12/26 12:27:59;;;;;;;;;;;;;;;;;;7337331;19;19925;-81
2022/12/26 12:30:24;;;;;;;;;;;;;;;;;;7347533;19;19927;-81
2022/12/26 12:32:50;;;;;;;;;;;;;;;;;;7357127;19;19956;-79
2022/12/26 12:35:15;;;;;;;;;;;;;;;;;;7327119;19;20533;-78
2022/12/26 12:37:40;;;;;;;;;;;;;;;;;;7349086;19;20423;-81
2022/12/26 23:02:38;;;;;;;;;;;;;;;;;;7286710;19;20343;-83
2022/12/26 23:05:04;;;;;;;;;;;;;;;;;;7310727;19;19927;-82
2022/12/26 23:07:29;;;;;;;;;;;;;;;;;;7356562;19;19919;-79
2022/12/26 23:09:54;;;;;;;;;;;;;;;;;;7348148;19;20685;-80
2022/12/26 23:15:02;;;;;;;;;;;;;;;;;;7358234;19;20154;-81
2022/12/26 23:22:55;;;;;;;;;;;;;;;;;;7364935;19;19955;-78
2022/12/26 23:25:20;;;;;;;;;;;;;;;;;;7362489;19;19931;-79
2022/12/26 23:30:30;;;;;;;;;;;;;;;;;;7365110;19;19932;-79
2022/12/26 23:32:55;;;;;;;;;;;;;;;;;;7369005;19;19938;-78
2022/12/26 23:35:20;;;;;;;;;;;;;;;;;;7364917;19;19915;-80
2022/12/26 23:37:45;;;;;;;;;;;;;;;;;;7365892;19;19927;-78
2022/12/26 23:40:12;;;;;;;;;;;;;;;;;;7369322;19;19919;-79
2022/12/26 23:42:37;;;;;;;;;;;;;;;;;;7372777;19;19918;-81
2022/12/26 23:45:02;;;;;;;;;;;;;;;;;;7367701;19;19923;-78
2022/12/26 23:47:27;;;;;;;;;;;;;;;;;;7371825;19;19935;-78
2022/12/26 23:49:52;;;;;;;;;;;;;;;;;;7369802;19;19919;-77
2022/12/26 23:52:17;;;;;;;;;;;;;;;;;;7372214;19;19936;-77
2022/12/26 23:54:42;;;;;;;;;;;;;;;;;;7368245;19;19933;-79
2022/12/26 23:57:07;;;;;;;;;;;;;;;;;;7368834;19;20400;-77
2022/12/26 23:59:32;;;;;;;;;;;;;;;;;;7372919;19;19918;-80
